Time;durP1;ratioP1;P1;durP2;ratioP2;P2;SDS_P1;SDS_P2;PMS_P1;PMS_P2;Temp;Humidity;BMP_temperature;BMP_pressure;BME280_temperature;BME280_humidity;BME280_pressure;Samples;Min_cycle;Max_cycle;Signal;HPM_P1;HPM_P2
2023/09/10 00:00:57;;;;;;;1.20;1.10;;;;;;;18.77;79.06;99777.38;5112254;28;20191;-64
2023/09/10 00:03:23;;;;;;;1.17;1.17;;;;;;;18.74;79.00;99782.75;5112513;28;20754;-64
2023/09/10 00:05:50;;;;;;;1.30;1.30;;;;;;;18.70;79.47;99778.69;5112873;28;20278;-64
2023/09/10 00:08:19;;;;;;;0.80;0.77;;;;;;;18.66;79.62;99781.53;5113280;28;20663;-64
2023/09/10 00:10:46;;;;;;;0.87;0.87;;;;;;;18.60;80.21;99779.28;5112660;28;20203;-64
2023/09/10 00:13:13;;;;;;;2.53;1.10;;;;;;;18.54;80.74;99785.69;5112868;28;20226;-64
2023/09/10 00:15:40;;;;;;;0.90;0.90;;;;;;;18.52;80.96;99789.25;5111308;28;20195;-64
2023/09/10 00:18:07;;;;;;;1.00;1.00;;;;;;;18.50;81.01;99778.97;5108503;28;20195;-64
2023/09/10 00:20:33;;;;;;;1.10;1.10;;;;;;;18.46;81.30;99781.78;5112541;28;20198;-64
2023/09/10 00:23:00;;;;;;;0.80;0.80;;;;;;;18.42;81.36;99781.13;5111998;28;20219;-64
2023/09/10 00:25:29;;;;;;;1.30;1.30;;;;;;;18.39;81.56;99776.09;5112543;28;20668;-64
2023/09/10 00:27:57;;;;;;;1.47;1.47;;;;;;;18.37;81.71;99788.34;5111982;28;20994;-64
2023/09/10 00:30:24;;;;;;;1.20;1.03;;;;;;;18.35;82.23;99780.63;5112820;28;20248;-63
2023/09/10 00:32:51;;;;;;;0.90;0.90;;;;;;;18.36;82.13;99776.28;5111953;28;20616;-64
2023/09/10 00:35:17;;;;;;;1.00;1.00;;;;;;;18.35;82.64;99779.81;5112020;28;20198;-63
2023/09/10 00:37:44;;;;;;;0.93;0.90;;;;;;;18.36;82.67;99776.28;5112088;28;20203;-63
2023/09/10 00:40:12;;;;;;;0.80;0.80;;;;;;;18.33;82.73;99784.22;5112381;28;20194;-63
2023/09/10 00:42:41;;;;;;;2.87;0.83;;;;;;;18.33;83.07;99777.28;5112353;28;20195;-63
2023/09/10 00:45:10;;;;;;;1.20;1.20;;;;;;;18.33;83.35;99776.44;5111994;28;20743;-63
2023/09/10 00:47:41;;;;;;;0.87;0.87;;;;;;;18.26;83.45;99769.91;5112217;28;20199;-63
2023/09/10 00:50:10;;;;;;;0.87;0.87;;;;;;;18.27;83.35;99777.63;5111775;28;20199;-63
2023/09/10 00:52:38;;;;;;;1.33;1.00;;;;;;;18.27;83.20;99776.78;5112430;28;20718;-64
2023/09/10 00:55:06;;;;;;;4.27;1.37;;;;;;;18.24;83.17;99780.41;5111668;28;20195;-63
2023/09/10 00:57:33;;;;;;;1.37;1.27;;;;;;;18.22;83.06;99778.81;5112194;28;20203;-64
2023/09/10 01:00:01;;;;;;;1.43;1.10;;;;;;;18.20;83.36;99776.28;5111562;28;20190;-63
2023/09/10 01:02:30;;;;;;;1.10;1.00;;;;;;;18.19;83.49;99776.41;5111637;28;20191;-63
2023/09/10 01:04:57;;;;;;;1.10;1.10;;;;;;;18.11;83.48;99770.78;5111884;28;20219;-63
2023/09/10 01:07:24;;;;;;;0.90;0.90;;;;;;;18.13;84.21;99768.91;5111848;28;20361;-63
2023/09/10 01:09:50;;;;;;;0.80;0.80;;;;;;;18.12;84.01;99777.66;5112011;28;20202;-63
2023/09/10 01:12:23;;;;;;;0.93;0.93;;;;;;;18.12;84.35;99782.84;5111124;28;20226;-64
2023/09/10 01:15:01;;;;;;;1.13;0.90;;;;;;;18.07;84.76;99774.44;5110866;28;20198;-62
2023/09/10 01:17:35;;;;;;;1.57;0.90;;;;;;;18.02;84.88;99774.72;5110920;28;20575;-64
2023/09/10 01:20:22;;;;;;;1.27;1.20;;;;;;;17.96;85.13;99766.44;5111419;28;20193;-64
2023/09/10 01:23:01;;;;;;;1.30;1.30;;;;;;;17.93;85.21;99764.00;5111710;28;20233;-64
2023/09/10 01:25:29;;;;;;;1.03;1.03;;;;;;;17.89;85.28;99760.75;5111157;28;20208;-63
2023/09/10 01:27:56;;;;;;;3.67;0.80;;;;;;;17.91;85.10;99768.41;5110866;28;20199;-63
2023/09/10 01:30:23;;;;;;;0.87;0.87;;;;;;;17.90;84.83;99771.97;5111461;28;20666;-63
2023/09/10 01:32:55;;;;;;;0.63;0.63;;;;;;;17.78;84.45;99763.91;5111434;28;20256;-63
2023/09/10 01:35:26;;;;;;;1.63;1.63;;;;;;;17.78;84.34;99765.66;5111485;28;20190;-63
2023/09/10 01:37:59;;;;;;;1.77;1.00;;;;;;;17.74;84.26;99762.38;5111324;28;20236;-63
2023/09/10 01:40:33;;;;;;;1.00;1.00;;;;;;;17.74;84.22;99762.38;5111157;28;20690;-63
2023/09/10 01:43:02;;;;;;;1.20;1.20;;;;;;;17.74;84.10;99762.38;5111174;28;20247;-63
2023/09/10 01:45:33;;;;;;;1.70;0.80;;;;;;;17.75;83.92;99758.88;5111251;28;20195;-64
2023/09/10 01:48:00;;;;;;;1.00;1.00;;;;;;;17.75;83.83;99763.22;5111573;28;20616;-63
2023/09/10 01:50:29;;;;;;;7.73;1.10;;;;;;;17.73;83.60;99763.31;5108498;28;20663;-65
2023/09/10 01:52:56;;;;;;;1.10;1.10;;;;;;;17.73;83.36;99765.09;5111292;28;20267;-63
2023/09/10 01:55:23;;;;;;;0.80;0.80;;;;;;;17.72;83.15;99769.41;5111379;28;20547;-63
2023/09/10 01:57:54;;;;;;;1.60;1.20;;;;;;;17.71;82.94;99767.75;5111169;28;20194;-63
2023/09/10 02:00:21;;;;;;;0.80;0.80;;;;;;;17.66;82.85;99758.53;5110491;28;20198;-63
2023/09/10 02:02:49;;;;;;;0.80;0.80;;;;;;;17.66;82.14;99758.53;5110898;28;20638;-63
2023/09/10 02:05:16;;;;;;;0.77;0.77;;;;;;;17.61;81.89;99748.41;5110928;28;20195;-63
2023/09/10 02:07:43;;;;;;;0.70;0.70;;;;;;;17.61;81.61;99755.38;5110921;28;20195;-63
2023/09/10 02:10:10;;;;;;;1.27;1.23;;;;;;;17.57;81.44;99754.69;5111257;28;20267;-63
2023/09/10 02:12:37;;;;;;;0.80;0.80;;;;;;;17.57;81.04;99759.03;5110091;28;20229;-63
2023/09/10 02:15:08;;;;;;;0.87;0.87;;;;;;;17.54;80.20;99760.00;5110996;28;20202;-63
2023/09/10 02:17:34;;;;;;;0.83;0.83;;;;;;;17.50;79.67;99766.25;5110763;28;20202;-63
2023/09/10 02:20:01;;;;;;;5.47;1.10;;;;;;;17.48;79.55;99760.31;5110831;28;20751;-64
2023/09/10 02:22:28;;;;;;;1.07;1.07;;;;;;;17.30;78.72;99730.19;5110907;28;20723;-64
2023/09/10 02:24:55;;;;;;;1.03;0.67;;;;;;;17.47;79.49;99769.03;5110197;28;20218;-64
2023/09/10 02:27:21;;;;;;;0.90;0.90;;;;;;;17.45;80.07;99763.06;5110810;28;20674;-63
2023/09/10 02:29:48;;;;;;;0.77;0.77;;;;;;;17.44;80.22;99769.19;5110617;28;20191;-64
2023/09/10 02:32:16;;;;;;;1.20;0.90;;;;;;;17.44;80.48;99771.78;5110675;28;20244;-64
2023/09/10 02:34:43;;;;;;;0.93;0.93;;;;;;;17.37;81.00;99767.81;5110257;28;20191;-64
2023/09/10 02:37:10;;;;;;;2.20;0.93;;;;;;;17.35;81.02;99774.81;5110612;28;20194;-64
2023/09/10 02:39:36;;;;;;;0.77;0.77;;;;;;;17.35;81.63;99772.22;5111148;28;20255;-64
2023/09/10 02:42:03;;;;;;;1.10;1.10;;;;;;;17.33;81.45;99763.72;5114575;28;20252;-64
2023/09/10 02:44:30;;;;;;;0.90;0.90;;;;;;;17.31;81.90;99762.97;5114275;28;20632;-64
2023/09/10 02:46:57;;;;;;;1.20;1.20;;;;;;;17.31;82.60;99768.16;5112560;28;20247;-64
2023/09/10 02:49:25;;;;;;;1.10;1.00;;;;;;;17.33;82.61;99766.28;5114670;28;20198;-64
2023/09/10 02:51:52;;;;;;;0.70;0.70;;;;;;;17.27;82.48;99767.47;5114055;28;20289;-64
2023/09/10 02:54:19;;;;;;;1.10;1.10;;;;;;;17.26;83.84;99764.94;5114530;28;20201;-64
2023/09/10 02:56:45;;;;;;;0.73;0.73;;;;;;;17.24;84.54;99762.44;5113574;28;20191;-64
2023/09/10 02:59:20;;;;;;;1.00;0.83;;;;;;;17.16;85.05;99761.13;5114200;28;20687;-64
2023/09/10 03:01:47;;;;;;;0.90;0.90;;;;;;;17.09;85.37;99746.84;5113897;28;20200;-64
2023/09/10 03:04:14;;;;;;;1.03;1.03;;;;;;;17.09;86.31;99752.03;5114019;28;20437;-64
2023/09/10 03:06:44;;;;;;;5.53;0.80;;;;;;;17.03;86.66;99757.50;5113861;28;20252;-63
2023/09/10 03:09:11;;;;;;;0.80;0.80;;;;;;;16.98;86.87;99762.09;5113463;28;20619;-63
2023/09/10 03:11:38;;;;;;;1.00;1.00;;;;;;;16.90;87.96;99756.47;5114076;28;20205;-63
2023/09/10 03:14:05;;;;;;;1.10;1.00;;;;;;;16.87;88.00;99757.44;5114218;28;20197;-63
2023/09/10 03:16:32;;;;;;;1.30;1.30;;;;;;;16.79;88.01;99755.25;5114009;28;20202;-63
2023/09/10 03:18:59;;;;;;;1.30;1.30;;;;;;;16.85;88.21;99763.63;5114096;28;20747;-63
2023/09/10 03:21:26;;;;;;;1.00;1.00;;;;;;;16.83;88.25;99762.88;5113312;28;20191;-63
2023/09/10 03:23:54;;;;;;;1.20;1.20;;;;;;;16.83;88.12;99766.28;5113653;28;20271;-63
2023/09/10 03:26:21;;;;;;;1.50;1.50;;;;;;;16.85;88.05;99773.97;5113977;28;20201;-63
2023/09/10 03:28:48;;;;;;;1.37;1.27;;;;;;;16.84;87.99;99772.28;5113581;28;20191;-63
2023/09/10 03:31:15;;;;;;;1.40;1.30;;;;;;;16.77;88.47;99772.59;5113768;28;20202;-63
2023/09/10 03:33:43;;;;;;;8.70;1.40;;;;;;;16.70;88.36;99771.22;5113306;28;20259;-63
2023/09/10 03:36:10;;;;;;;1.00;1.00;;;;;;;16.62;88.05;99768.19;5113166;28;20217;-63
2023/09/10 03:38:37;;;;;;;1.47;1.47;;;;;;;16.56;88.29;99772.81;5112696;28;20291;-63
2023/09/10 03:41:05;;;;;;;1.90;0.80;;;;;;;16.55;88.98;99782.31;5113122;28;20255;-63
2023/09/10 03:43:31;;;;;;;1.37;1.37;;;;;;;16.51;88.95;99767.00;5112967;28;20270;-63
2023/09/10 03:45:58;;;;;;;1.20;1.20;;;;;;;16.48;88.68;99775.72;5110131;28;20202;-63
2023/09/10 03:48:25;;;;;;;1.03;1.03;;;;;;;16.45;88.98;99775.88;5113170;28;20251;-63
2023/09/10 03:50:52;;;;;;;1.60;1.20;;;;;;;16.45;89.30;99775.88;5112806;28;20247;-63
2023/09/10 03:53:18;;;;;;;1.00;1.00;;;;;;;16.48;89.25;99773.13;5112420;28;20500;-63
2023/09/10 03:55:45;;;;;;;1.57;1.57;;;;;;;16.51;89.60;99774.78;5113240;28;20247;-63
2023/09/10 03:58:13;;;;;;;4.60;1.20;;;;;;;16.53;89.01;99771.19;5113292;28;20251;-63
2023/09/10 04:00:40;;;;;;;0.90;0.90;;;;;;;16.57;88.90;99767.59;5113074;28;20206;-63
2023/09/10 04:03:06;;;;;;;1.90;1.50;;;;;;;16.63;88.81;99774.19;5113261;28;20726;-63
2023/09/10 04:05:33;;;;;;;2.67;1.20;;;;;;;16.68;88.76;99774.78;5112512;28;20646;-63
2023/09/10 04:08:00;;;;;;;1.50;1.40;;;;;;;16.63;88.55;99769.88;5112552;28;20198;-63
2023/09/10 04:10:27;;;;;;;1.30;1.20;;;;;;;16.64;88.22;99771.50;5111511;28;20251;-63
2023/09/10 04:12:53;;;;;;;1.07;1.07;;;;;;;16.73;88.05;99776.28;5111647;28;20219;-63
2023/09/10 04:15:21;;;;;;;1.20;1.17;;;;;;;16.72;87.46;99772.00;5112730;28;20199;-63
2023/09/10 04:17:48;;;;;;;1.20;1.20;;;;;;;16.72;87.34;99771.16;5112046;28;20206;-63
2023/09/10 04:20:15;;;;;;;12.70;1.23;;;;;;;16.76;87.12;99786.47;5112105;28;20677;-63
2023/09/10 04:22:42;;;;;;;2.50;1.03;;;;;;;16.76;86.31;99791.66;5112332;28;20199;-63
2023/09/10 04:25:09;;;;;;;0.93;0.93;;;;;;;16.77;86.35;99798.47;5109329;28;20589;-64
2023/09/10 04:27:36;;;;;;;2.40;1.07;;;;;;;16.79;86.41;99801.84;5109135;28;20206;-63
2023/09/10 04:30:04;;;;;;;1.33;1.33;;;;;;;16.83;86.71;99801.69;5111932;28;20667;-63
2023/09/10 04:32:32;;;;;;;1.07;1.07;;;;;;;16.82;86.99;99802.59;5112167;28;20662;-63
2023/09/10 04:34:59;;;;;;;0.80;0.80;;;;;;;16.88;87.20;99797.13;5111912;28;20195;-63
2023/09/10 04:37:26;;;;;;;0.80;0.80;;;;;;;16.94;86.86;99799.41;5111971;28;20198;-63
2023/09/10 04:39:53;;;;;;;1.20;1.20;;;;;;;16.98;85.99;99798.34;5111916;28;20678;-63
2023/09/10 04:42:20;;;;;;;1.13;1.13;;;;;;;17.07;85.86;99803.06;5111035;28;20206;-63
2023/09/10 04:44:47;;;;;;;1.00;1.00;;;;;;;17.13;85.71;99794.97;5111995;28;20214;-63
2023/09/10 04:47:14;;;;;;;1.23;1.17;;;;;;;17.12;85.75;99785.53;5111594;28;20297;-63
2023/09/10 04:49:42;;;;;;;1.13;1.13;;;;;;;17.24;85.21;99792.69;5111804;28;20202;-63
2023/09/10 04:52:09;;;;;;;0.90;0.90;;;;;;;17.20;84.40;99778.22;5112049;28;20252;-63
2023/09/10 04:54:36;;;;;;;0.80;0.80;;;;;;;17.25;83.78;99787.41;5110409;28;20248;-63
2023/09/10 04:57:02;;;;;;;1.03;1.03;;;;;;;17.36;82.46;99797.22;5111394;28;20252;-63
2023/09/10 04:59:29;;;;;;;1.13;1.13;;;;;;;17.36;82.10;99789.47;5111594;27;20210;-63
2023/09/10 05:01:58;;;;;;;0.93;0.93;;;;;;;17.38;81.83;99798.00;5105554;28;20203;-63
2023/09/10 05:04:25;;;;;;;0.93;0.90;;;;;;;17.35;81.37;99795.56;5112134;28;20275;-63
2023/09/10 05:06:53;;;;;;;1.17;1.17;;;;;;;17.22;81.59;99784.16;5111366;28;20215;-63
2023/09/10 05:09:20;;;;;;;2.10;1.10;;;;;;;17.31;82.13;99796.66;5111154;28;20199;-63
2023/09/10 05:11:46;;;;;;;1.80;1.70;;;;;;;17.35;82.59;99794.75;5111104;28;20719;-63
2023/09/10 05:14:13;;;;;;;1.13;1.13;;;;;;;17.39;83.25;99789.31;5110794;28;20244;-63
2023/09/10 05:16:40;;;;;;;1.50;1.20;;;;;;;17.54;83.75;99790.28;5104139;28;20199;-63
2023/09/10 05:19:07;;;;;;;0.80;0.80;;;;;;;17.64;82.55;99791.50;5108939;28;20198;-63
2023/09/10 05:21:33;;;;;;;0.80;0.80;;;;;;;17.78;81.87;99799.38;5108052;28;20298;-63
2023/09/10 05:24:01;;;;;;;10.20;1.37;;;;;;;17.92;83.21;99791.69;5105223;28;20206;-63
2023/09/10 05:26:28;;;;;;;1.00;1.00;;;;;;;18.12;82.44;99796.66;5108588;28;20206;-63
2023/09/10 05:28:55;;;;;;;1.10;1.10;;;;;;;18.38;80.24;99800.41;5106888;28;20198;-64
2023/09/10 05:31:21;;;;;;;0.90;0.90;;;;;;;18.53;77.05;99803.91;5108259;28;20259;-64
2023/09/10 05:33:48;;;;;;;1.10;1.10;;;;;;;18.72;75.73;99795.00;5109202;28;20198;-64
2023/09/10 05:36:15;;;;;;;0.97;0.97;;;;;;;18.89;74.84;99796.63;5106678;28;20218;-63
2023/09/10 05:38:42;;;;;;;0.80;0.80;;;;;;;18.99;74.67;99799.53;5111193;28;20667;-63
2023/09/10 05:41:10;;;;;;;1.10;1.10;;;;;;;19.18;73.16;99797.53;5109269;28;20226;-63
2023/09/10 05:43:37;;;;;;;1.20;1.20;;;;;;;19.31;72.30;99799.31;5110577;28;20202;-63
2023/09/10 05:46:04;;;;;;;0.93;0.90;;;;;;;19.29;72.53;99800.31;5107410;28;20306;-63
2023/09/10 05:48:31;;;;;;;1.40;0.87;;;;;;;19.32;73.57;99811.38;5110561;28;20206;-64
2023/09/10 05:50:58;;;;;;;1.10;1.10;;;;;;;19.48;73.97;99800.94;5107044;28;20204;-64
2023/09/10 05:53:24;;;;;;;5.80;1.20;;;;;;;19.67;74.39;99798.91;5106564;28;20202;-64
2023/09/10 05:55:51;;;;;;;0.87;0.87;;;;;;;19.84;72.68;99811.69;5110708;28;20197;-64
2023/09/10 05:58:20;;;;;;;1.10;1.10;;;;;;;20.00;71.71;99803.78;5109954;28;20257;-64
2023/09/10 06:00:46;;;;;;;0.87;0.87;;;;;;;19.81;71.37;99778.06;5110523;28;20230;-63
2023/09/10 06:03:13;;;;;;;0.80;0.80;;;;;;;20.08;72.16;99805.91;5109031;28;20197;-64
2023/09/10 06:05:40;;;;;;;1.47;1.37;;;;;;;20.20;73.72;99805.13;5106526;28;20226;-64
2023/09/10 06:08:07;;;;;;;1.30;1.20;;;;;;;20.29;70.45;99804.59;5104658;28;20227;-63
2023/09/10 06:10:34;;;;;;;1.00;1.00;;;;;;;20.33;69.55;99813.88;5107574;28;20624;-64
2023/09/10 06:13:00;;;;;;;1.47;1.07;;;;;;;20.42;69.49;99815.88;5109643;28;20234;-63
2023/09/10 06:15:28;;;;;;;0.93;0.93;;;;;;;20.62;69.59;99807.63;5107416;28;20259;-63
2023/09/10 06:17:55;;;;;;;1.07;1.07;;;;;;;20.88;68.37;99809.38;5112268;28;20251;-63
2023/09/10 06:20:22;;;;;;;5.40;1.40;;;;;;;20.98;65.37;99808.75;5114440;28;20266;-63
2023/09/10 06:22:49;;;;;;;1.27;1.13;;;;;;;21.10;65.55;99821.03;5114366;28;20198;-63
2023/09/10 06:25:16;;;;;;;6.63;1.17;;;;;;;21.14;63.83;99819.88;5107697;28;20219;-63
2023/09/10 06:27:43;;;;;;;0.93;0.93;;;;;;;21.19;65.66;99823.00;5113785;28;20201;-63
2023/09/10 06:30:11;;;;;;;1.00;1.00;;;;;;;21.27;64.61;99820.72;5114217;27;20741;-63
2023/09/10 06:32:39;;;;;;;1.20;1.20;;;;;;;21.46;64.39;99828.97;5113910;28;20205;-63
2023/09/10 06:35:06;;;;;;;1.17;1.17;;;;;;;21.66;59.76;99828.44;5113862;28;20674;-63
2023/09/10 06:37:33;;;;;;;1.37;1.27;;;;;;;21.90;58.90;99826.78;5113144;28;20202;-63
2023/09/10 06:40:00;;;;;;;0.60;0.60;;;;;;;22.18;58.41;99830.06;5113439;28;20202;-63
2023/09/10 06:42:27;;;;;;;0.73;0.73;;;;;;;22.39;55.87;99818.91;5113254;28;20203;-64
2023/09/10 06:44:53;;;;;;;1.00;1.00;;;;;;;22.61;55.65;99833.88;5115754;27;20232;-63
2023/09/10 06:47:20;;;;;;;0.60;0.60;;;;;;;22.83;54.09;99828.78;5113492;28;20271;-63
2023/09/10 06:49:48;;;;;;;0.80;0.80;;;;;;;23.10;55.20;99825.91;5114132;28;20206;-63
2023/09/10 06:52:15;;;;;;;0.67;0.67;;;;;;;23.27;54.48;99828.06;5113770;28;20211;-63
2023/09/10 06:54:42;;;;;;;0.97;0.70;;;;;;;23.51;52.82;99826.25;5113055;28;20203;-63
2023/09/10 06:57:09;;;;;;;0.80;0.80;;;;;;;23.70;53.60;99836.13;5113991;28;20230;-63
2023/09/10 06:59:35;;;;;;;0.97;0.97;;;;;;;23.88;50.03;99832.06;5113466;28;20271;-63
2023/09/10 07:02:02;;;;;;;0.87;0.87;;;;;;;24.11;50.08;99829.41;5113387;28;20190;-63
2023/09/10 07:04:29;;;;;;;0.77;0.77;;;;;;;24.37;49.93;99836.06;5112348;28;20205;-64
2023/09/10 07:06:57;;;;;;;0.73;0.73;;;;;;;24.56;51.36;99831.00;5113224;28;20203;-64
2023/09/10 07:09:24;;;;;;;0.60;0.60;;;;;;;24.71;47.91;99828.94;5112909;28;20194;-64
2023/09/10 07:11:52;;;;;;;0.50;0.50;;;;;;;24.79;48.00;99831.75;5112196;28;20289;-64
2023/09/10 07:14:19;;;;;;;0.57;0.57;;;;;;;24.86;48.03;99823.31;5112911;28;20209;-64
2023/09/10 07:16:47;;;;;;;0.87;0.87;;;;;;;25.03;46.49;99821.91;5113573;28;20202;-64
2023/09/10 07:19:13;;;;;;;1.10;0.60;;;;;;;25.10;47.11;99817.00;5113334;28;20620;-64
2023/09/10 07:21:40;;;;;;;0.63;0.63;;;;;;;25.26;46.36;99823.47;5111161;28;20198;-64
2023/09/10 07:24:09;;;;;;;1.80;1.70;;;;;;;25.41;44.54;99822.16;5111047;28;20264;-64
2023/09/10 07:26:36;;;;;;;10.80;4.93;;;;;;;25.47;47.46;99821.63;5112024;28;20305;-64
2023/09/10 07:29:03;;;;;;;12.63;6.87;;;;;;;25.63;44.58;99823.81;5112109;28;20252;-64
2023/09/10 07:31:30;;;;;;;7.78;4.10;;;;;;;25.88;45.72;99818.09;5110375;28;21015;-66
2023/09/10 07:33:57;;;;;;;2.60;2.40;;;;;;;26.16;43.96;99815.69;5113098;28;20202;-66
2023/09/10 07:36:24;;;;;;;2.13;1.93;;;;;;;26.37;41.80;99816.44;5110747;28;20601;-66
2023/09/10 07:38:50;;;;;;;0.93;0.93;;;;;;;26.60;40.30;99820.50;5113270;28;20195;-66
2023/09/10 07:41:19;;;;;;;1.37;0.90;;;;;;;26.71;41.23;99807.22;5113055;28;20255;-66
2023/09/10 07:43:45;;;;;;;1.03;0.80;;;;;;;26.97;41.18;99818.88;5113460;28;20275;-66
2023/09/10 07:46:12;;;;;;;0.70;0.70;;;;;;;26.97;40.54;99797.81;5112356;28;20276;-66
2023/09/10 07:48:39;;;;;;;0.57;0.57;;;;;;;27.10;38.32;99819.41;5110066;28;20636;-66
2023/09/10 07:51:06;;;;;;;2.47;1.60;;;;;;;27.21;37.89;99820.19;5112792;28;20237;-66
2023/09/10 07:53:33;;;;;;;1.60;1.50;;;;;;;27.38;40.01;99816.84;5112777;28;20247;-66
2023/09/10 07:55:59;;;;;;;0.50;0.50;;;;;;;27.51;37.67;99823.50;5112931;28;20195;-66
2023/09/10 07:58:27;;;;;;;0.60;0.60;;;;;;;27.67;36.00;99817.59;5111827;28;20202;-66
2023/09/10 08:00:56;;;;;;;0.73;0.73;;;;;;;27.77;36.33;99818.41;5112671;28;20628;-66
2023/09/10 08:03:22;;;;;;;1.40;0.73;;;;;;;27.85;34.38;99821.13;5112148;28;20232;-66
2023/09/10 08:05:49;;;;;;;0.60;0.60;;;;;;;27.91;35.05;99820.56;5108205;28;20835;-66
2023/09/10 08:08:16;;;;;;;0.70;0.70;;;;;;;28.01;34.46;99821.31;5111369;28;20199;-66
2023/09/10 08:10:44;;;;;;;0.60;0.60;;;;;;;28.11;34.63;99801.03;5110909;28;20195;-66
2023/09/10 08:13:12;;;;;;;0.80;0.80;;;;;;;28.26;33.71;99819.00;5106130;28;20297;-66
2023/09/10 08:15:41;;;;;;;0.60;0.60;;;;;;;28.38;34.28;99807.25;5112049;28;20199;-66
2023/09/10 08:18:10;;;;;;;0.70;0.70;;;;;;;28.51;33.35;99818.28;5113090;28;20639;-66
2023/09/10 08:20:37;;;;;;;0.80;0.53;;;;;;;28.68;33.98;99809.56;5112259;28;20205;-66
2023/09/10 08:23:04;;;;;;;0.60;0.60;;;;;;;28.73;32.01;99817.84;5112607;28;20244;-65
2023/09/10 08:25:31;;;;;;;0.60;0.60;;;;;;;28.91;32.03;99816.03;5111208;28;20705;-66
2023/09/10 08:27:58;;;;;;;0.50;0.50;;;;;;;28.96;32.84;99808.47;5111120;28;20674;-65
2023/09/10 08:30:25;;;;;;;0.63;0.63;;;;;;;29.00;32.60;99820.41;5112291;28;20700;-65
2023/09/10 08:32:53;;;;;;;0.90;0.90;;;;;;;29.24;32.31;99813.63;5112300;28;20202;-65
2023/09/10 08:35:21;;;;;;;0.60;0.60;;;;;;;29.29;32.32;99809.56;5111967;28;20260;-66
2023/09/10 08:37:48;;;;;;;0.50;0.50;;;;;;;29.30;33.51;99803.31;5110401;28;20255;-65
2023/09/10 08:40:16;;;;;;;0.50;0.50;;;;;;;29.35;33.11;99803.66;5112418;28;20563;-66
2023/09/10 08:42:47;;;;;;;0.60;0.60;;;;;;;29.30;32.86;99805.13;5110778;28;20191;-66
2023/09/10 08:45:14;;;;;;;1.40;1.30;;;;;;;29.36;33.18;99800.03;5112106;28;20627;-65
2023/09/10 08:47:43;;;;;;;0.70;0.70;;;;;;;29.39;32.91;99796.25;5110728;28;20211;-65
2023/09/10 08:50:12;;;;;;;0.50;0.50;;;;;;;29.31;33.74;99793.56;5111805;28;20206;-66
2023/09/10 08:52:40;;;;;;;0.90;0.90;;;;;;;29.07;32.91;99789.75;5111002;28;20252;-65
2023/09/10 08:55:07;;;;;;;0.80;0.80;;;;;;;29.24;35.29;99790.69;5111344;28;20202;-65
2023/09/10 08:57:37;;;;;;;0.77;0.77;;;;;;;29.37;33.90;99791.13;5111860;28;20259;-65
2023/09/10 09:00:10;;;;;;;0.70;0.70;;;;;;;29.30;34.51;99784.00;5112040;28;20220;-65
2023/09/10 09:02:37;;;;;;;0.60;0.60;;;;;;;29.28;35.39;99781.50;5111758;28;20229;-65
2023/09/10 09:05:05;;;;;;;0.77;0.63;;;;;;;29.43;34.34;99782.59;5111864;28;20199;-65
2023/09/10 09:07:37;;;;;;;1.07;0.97;;;;;;;29.38;34.78;99786.66;5111181;28;20195;-65
2023/09/10 09:10:09;;;;;;;0.40;0.40;;;;;;;29.36;34.16;99783.38;5111553;28;20195;-66
2023/09/10 09:12:39;;;;;;;0.90;0.60;;;;;;;29.52;35.47;99775.53;5111826;28;20223;-66
2023/09/10 09:15:08;;;;;;;0.80;0.80;;;;;;;29.67;34.92;99776.56;5111410;28;20194;-66
2023/09/10 09:17:38;;;;;;;0.80;0.80;;;;;;;29.42;33.92;99777.44;5111897;28;20282;-66
2023/09/10 09:20:11;;;;;;;0.75;0.75;;;;;;;29.39;34.14;99780.41;5110554;28;20285;-66
2023/09/10 09:22:41;;;;;;;0.57;0.57;;;;;;;29.41;34.82;99765.22;5111346;28;20213;-66
2023/09/10 09:25:09;;;;;;;0.57;0.57;;;;;;;29.63;35.97;99773.41;5111171;28;20742;-66
2023/09/10 09:27:37;;;;;;;0.93;0.93;;;;;;;29.74;34.81;99763.56;5111713;28;20634;-67
2023/09/10 09:30:06;;;;;;;1.33;0.77;;;;;;;29.69;34.48;99774.63;5111062;28;20207;-66
2023/09/10 09:32:34;;;;;;;0.80;0.77;;;;;;;29.82;34.81;99769.72;5111361;28;20294;-67
2023/09/10 09:35:02;;;;;;;0.77;0.77;;;;;;;29.78;34.05;99757.81;5110846;28;20290;-66
2023/09/10 09:37:31;;;;;;;1.37;0.80;;;;;;;29.76;34.08;99762.41;5111172;28;20286;-66
2023/09/10 09:40:00;;;;;;;0.70;0.70;;;;;;;29.75;34.24;99773.16;5111053;28;20674;-67
2023/09/10 09:42:27;;;;;;;0.70;0.70;;;;;;;29.77;34.83;99761.41;5111281;28;20199;-66
2023/09/10 09:44:55;;;;;;;0.70;0.70;;;;;;;29.85;36.74;99755.38;5110872;28;20195;-66
2023/09/10 09:47:21;;;;;;;0.85;0.85;;;;;;;30.05;35.08;99752.28;5109695;28;20239;-66
2023/09/10 09:49:49;;;;;;;0.50;0.50;;;;;;;30.12;33.43;99755.09;5110752;28;20275;-66
2023/09/10 09:52:18;;;;;;;1.00;1.00;;;;;;;30.07;35.23;99752.13;5110845;28;20195;-66
2023/09/10 09:54:47;;;;;;;0.90;0.90;;;;;;;30.03;35.19;99751.63;5110679;28;20205;-66
2023/09/10 09:57:15;;;;;;;0.85;0.85;;;;;;;30.13;34.45;99752.31;5110478;28;20206;-66
2023/09/10 09:59:41;;;;;;;0.75;0.75;;;;;;;30.05;35.52;99744.34;5110740;28;20244;-66
2023/09/10 10:02:13;;;;;;;0.60;0.60;;;;;;;29.69;33.31;99725.22;5110266;28;20744;-66
2023/09/10 10:04:40;;;;;;;0.77;0.77;;;;;;;29.89;34.66;99741.66;5110794;28;20666;-67
2023/09/10 10:07:07;;;;;;;0.80;0.80;;;;;;;29.96;34.12;99747.13;5110272;28;20279;-66
2023/09/10 10:09:35;;;;;;;0.80;0.80;;;;;;;29.99;34.34;99742.34;5110931;28;20544;-66
2023/09/10 10:12:03;;;;;;;0.90;0.90;;;;;;;30.11;35.19;99735.75;5110476;28;20309;-66
2023/09/10 10:14:32;;;;;;;0.77;0.77;;;;;;;29.99;34.06;99697.41;5110291;28;20355;-68
2023/09/10 10:17:01;;;;;;;1.88;1.17;;;;;;;30.12;33.76;99733.94;5109531;28;20431;-63
2023/09/10 10:19:30;;;;;;;1.00;1.00;;;;;;;30.18;33.95;99733.28;5109382;28;20191;-64
2023/09/10 10:21:57;;;;;;;1.02;1.02;;;;;;;30.17;33.81;99737.78;5110532;28;20286;-65
2023/09/10 10:24:24;;;;;;;0.80;0.80;;;;;;;29.95;32.87;99738.38;5110722;28;20255;-65
2023/09/10 10:26:52;;;;;;;0.70;0.70;;;;;;;29.89;34.70;99736.38;5109480;28;20210;-64
2023/09/10 10:29:20;;;;;;;0.73;0.73;;;;;;;29.79;34.67;99730.34;5110388;28;20225;-65
2023/09/10 10:31:56;;;;;;;0.85;0.85;;;;;;;29.66;34.39;99738.75;5110076;28;20198;-64
2023/09/10 10:34:24;;;;;;;0.60;0.60;;;;;;;29.72;34.99;99742.59;5110175;28;20263;-64
2023/09/10 10:36:59;;;;;;;0.90;0.90;;;;;;;29.76;34.30;99738.59;5110082;28;20263;-64
2023/09/10 10:39:35;;;;;;;0.70;0.70;;;;;;;29.97;34.72;99728.47;5109801;28;20563;-65
2023/09/10 10:42:05;;;;;;;0.80;0.80;;;;;;;30.00;34.33;99727.31;5110391;28;20248;-64
2023/09/10 10:44:35;;;;;;;1.00;1.00;;;;;;;29.96;34.54;99718.88;5109721;28;20195;-64
2023/09/10 10:47:13;;;;;;;0.80;0.80;;;;;;;29.91;34.09;99723.84;5106832;28;20761;-65
2023/09/10 10:49:46;;;;;;;0.80;0.80;;;;;;;29.59;34.23;99711.31;5105168;28;20665;-64
2023/09/10 10:52:19;;;;;;;0.68;0.68;;;;;;;29.40;34.83;99732.72;5110388;28;20531;-66
2023/09/10 10:54:48;;;;;;;0.80;0.80;;;;;;;29.36;34.70;99710.25;5109652;28;20259;-65
2023/09/10 10:57:15;;;;;;;1.27;1.27;;;;;;;29.64;34.52;99724.88;5109067;28;20255;-65
2023/09/10 10:59:42;;;;;;;1.23;0.90;;;;;;;29.72;34.42;99715.31;5109794;28;20618;-64
2023/09/10 11:02:22;;;;;;;0.70;0.70;;;;;;;29.94;34.70;99704.16;5113398;28;20658;-65
2023/09/10 11:04:56;;;;;;;0.63;0.63;;;;;;;29.97;34.01;99702.03;5113230;28;20245;-65
2023/09/10 11:07:24;;;;;;;1.10;1.10;;;;;;;29.76;33.70;99696.31;5113791;28;20267;-65
2023/09/10 11:09:51;;;;;;;0.95;0.80;;;;;;;29.60;34.96;99696.28;5113659;27;20573;-66
2023/09/10 11:12:18;;;;;;;0.90;0.90;;;;;;;29.50;34.49;99690.31;5112140;28;20722;-65
2023/09/10 11:15:04;;;;;;;0.88;0.88;;;;;;;29.70;34.59;99691.69;5113808;27;20702;-64
2023/09/10 11:17:33;;;;;;;4.30;0.93;;;;;;;29.69;34.32;99690.06;5113340;28;20190;-64
2023/09/10 11:20:00;;;;;;;0.60;0.60;;;;;;;29.76;34.93;99685.75;5113147;28;20203;-65
2023/09/10 11:22:27;;;;;;;0.70;0.70;;;;;;;29.87;34.35;99682.84;5113424;28;20723;-65
2023/09/10 11:25:01;;;;;;;1.70;0.90;;;;;;;29.67;33.63;99670.88;5113255;28;20190;-65
2023/09/10 11:27:27;;;;;;;0.80;0.80;;;;;;;29.59;36.59;99666.41;5113020;28;20261;-64
2023/09/10 11:30:08;;;;;;;0.80;0.80;;;;;;;29.83;34.94;99676.22;5113578;28;20195;-65
2023/09/10 11:32:37;;;;;;;2.70;1.20;;;;;;;29.79;33.46;99677.50;5112733;28;20198;-64
2023/09/10 11:35:25;;;;;;;0.87;0.87;;;;;;;29.87;35.23;99672.28;5112302;28;20293;-64
2023/09/10 11:37:53;;;;;;;0.88;0.88;;;;;;;30.06;34.31;99666.69;5107063;28;20263;-64